createdAt,value
2023-04-18T00:00:05.184Z,4.57
2023-04-18T00:02:36.500Z,2.70
2023-04-18T00:05:05.383Z,4.53
2023-04-18T00:07:33.756Z,3.00
2023-04-18T00:10:02.009Z,3.27
2023-04-18T00:12:31.929Z,3.07
2023-04-18T00:15:00.327Z,2.93
2023-04-18T00:17:28.658Z,5.27
2023-04-18T00:19:58.329Z,2.90
2023-04-18T00:22:26.862Z,3.13
2023-04-18T00:24:55.133Z,3.50
2023-04-18T00:27:23.408Z,2.53
2023-04-18T00:29:53.038Z,2.87
2023-04-18T00:32:21.360Z,6.13
2023-04-18T00:34:49.733Z,3.37
2023-04-18T00:37:17.952Z,3.57
2023-04-18T00:39:46.234Z,2.23
2023-04-18T00:42:14.461Z,4.20
2023-04-18T00:44:42.740Z,2.20
2023-04-18T00:47:12.371Z,2.47
2023-04-18T00:49:40.584Z,1.87
2023-04-18T00:52:08.819Z,3.93
2023-04-18T00:54:37.080Z,2.93
2023-04-18T00:57:05.354Z,3.50
2023-04-18T00:59:35.232Z,3.43
2023-04-18T01:02:03.852Z,1.87
2023-04-18T01:04:33.677Z,3.30
2023-04-18T01:07:02.273Z,2.50
2023-04-18T01:09:30.692Z,2.93
2023-04-18T01:11:59.008Z,2.63
2023-04-18T01:14:27.218Z,3.17
2023-04-18T01:16:55.762Z,1.77
2023-04-18T01:19:24.094Z,3.00
2023-04-18T01:21:54.336Z,2.67
2023-04-18T01:24:26.753Z,5.47
2023-04-18T01:26:54.976Z,1.60
2023-04-18T01:29:23.200Z,3.43
2023-04-18T01:31:51.473Z,3.03
2023-04-18T01:34:19.700Z,3.83
2023-04-18T01:36:48.362Z,2.13
2023-04-18T01:39:18.355Z,1.80
2023-04-18T01:41:48.050Z,3.47
2023-04-18T01:44:16.503Z,3.60
2023-04-18T01:46:44.858Z,2.77
2023-04-18T01:49:13.102Z,1.53
2023-04-18T01:51:42.144Z,2.97
2023-04-18T01:54:10.396Z,2.70
2023-04-18T01:56:38.651Z,2.03
2023-04-18T01:59:08.274Z,2.77
2023-04-18T02:01:36.539Z,4.27
2023-04-18T02:04:04.846Z,2.47
2023-04-18T02:06:33.121Z,2.20
2023-04-18T02:09:01.444Z,1.87
2023-04-18T02:11:29.773Z,3.37
2023-04-18T02:13:59.554Z,1.60
2023-04-18T02:16:29.249Z,1.80
2023-04-18T02:18:57.808Z,1.40
2023-04-18T02:21:26.048Z,1.97
2023-04-18T02:23:54.282Z,3.30
2023-04-18T02:26:22.541Z,1.70
2023-04-18T02:28:50.798Z,2.13
2023-04-18T02:31:19.036Z,2.90
2023-04-18T02:33:48.752Z,1.63
2023-04-18T02:36:17.132Z,1.83
2023-04-18T02:38:46.641Z,1.53
2023-04-18T02:41:17.507Z,1.73
2023-04-18T02:43:45.797Z,1.50
2023-04-18T02:46:14.067Z,2.90
2023-04-18T02:48:42.380Z,1.80
2023-04-18T02:51:12.121Z,3.33
2023-04-18T02:53:40.372Z,2.67
2023-04-18T02:56:09.250Z,1.60
2023-04-18T02:58:37.471Z,1.50
2023-04-18T03:01:05.787Z,2.67
2023-04-18T03:03:34.144Z,1.77
2023-04-18T03:06:02.427Z,1.67
2023-04-18T03:08:32.030Z,3.70
2023-04-18T03:11:00.259Z,2.00
2023-04-18T03:13:28.500Z,1.80
2023-04-18T03:15:56.750Z,1.83
2023-04-18T03:18:25.061Z,1.67
2023-04-18T03:20:53.280Z,2.50
2023-04-18T03:23:21.946Z,2.50
2023-04-18T03:25:51.568Z,2.17
2023-04-18T03:28:19.824Z,1.27
2023-04-18T03:30:48.077Z,3.37
2023-04-18T03:33:17.163Z,1.30
2023-04-18T03:35:45.398Z,1.90
2023-04-18T03:38:13.634Z,1.93
2023-04-18T03:40:42.199Z,1.40
2023-04-18T03:43:11.803Z,1.40
2023-04-18T03:45:40.097Z,1.57
2023-04-18T03:48:08.562Z,1.67
2023-04-18T03:50:36.771Z,0.87
2023-04-18T03:53:05.014Z,1.00
2023-04-18T03:55:33.342Z,1.23
2023-04-18T03:58:01.646Z,1.43
2023-04-18T04:00:31.257Z,1.67
2023-04-18T04:02:59.604Z,2.23
2023-04-18T04:05:28.171Z,2.70
2023-04-18T04:07:56.518Z,2.10
2023-04-18T04:10:24.891Z,1.63
2023-04-18T04:12:53.091Z,1.00
2023-04-18T04:15:21.294Z,3.50
2023-04-18T04:17:51.021Z,3.97
2023-04-18T04:20:24.127Z,1.40
2023-04-18T04:22:52.557Z,2.53
2023-04-18T04:25:23.813Z,1.30
2023-04-18T04:27:53.624Z,2.27
2023-04-18T04:30:22.219Z,2.97
2023-04-18T04:32:51.967Z,2.10
2023-04-18T04:35:20.219Z,1.13
2023-04-18T04:37:48.457Z,3.00
2023-04-18T04:40:17.561Z,1.03
2023-04-18T04:42:45.914Z,1.47
2023-04-18T04:45:14.208Z,1.50
2023-04-18T04:47:42.448Z,1.20
2023-04-18T04:50:15.386Z,1.30
2023-04-18T04:52:43.687Z,2.00
2023-04-18T04:55:11.969Z,3.47
2023-04-18T04:57:40.391Z,1.57
2023-04-18T05:00:09.228Z,1.57
2023-04-18T05:02:37.540Z,3.07
2023-04-18T05:05:06.321Z,1.33
2023-04-18T05:07:35.906Z,1.27
2023-04-18T05:10:04.227Z,0.90
2023-04-18T05:12:32.534Z,1.47
2023-04-18T05:15:00.792Z,2.10
2023-04-18T05:17:29.052Z,1.67
2023-04-18T05:19:57.325Z,1.43
2023-04-18T05:22:25.660Z,1.93
2023-04-18T05:24:55.327Z,1.40
2023-04-18T05:27:23.582Z,2.37
2023-04-18T05:29:52.647Z,1.30
2023-04-18T05:32:21.328Z,1.50
2023-04-18T05:34:49.788Z,1.70
2023-04-18T05:37:18.021Z,1.07
2023-04-18T05:39:46.265Z,1.07
2023-04-18T05:42:15.881Z,1.27
2023-04-18T05:44:44.180Z,0.97
2023-04-18T05:47:12.435Z,1.60
2023-04-18T05:49:40.735Z,1.10
2023-04-18T05:52:08.997Z,1.23
2023-04-18T05:54:37.235Z,1.17
2023-04-18T05:57:05.477Z,1.93
2023-04-18T05:59:35.074Z,0.83
2023-04-18T06:02:03.371Z,1.10
2023-04-18T06:04:31.901Z,2.50
2023-04-18T06:07:00.332Z,1.73
2023-04-18T06:09:28.558Z,1.77
2023-04-18T06:11:57.841Z,1.33
2023-04-18T06:14:26.260Z,1.83
2023-04-18T06:16:55.860Z,1.27
2023-04-18T06:19:24.122Z,0.90
2023-04-18T06:21:52.366Z,1.80
2023-04-18T06:24:20.652Z,2.30
2023-04-18T06:26:48.912Z,2.07
2023-04-18T06:29:18.084Z,1.03
2023-04-18T06:31:48.201Z,1.10
2023-04-18T06:34:17.876Z,1.30
2023-04-18T06:36:46.136Z,2.80
2023-04-18T06:39:14.429Z,1.43
2023-04-18T06:41:42.729Z,0.70
2023-04-18T06:44:10.998Z,1.45
2023-04-18T06:46:39.272Z,1.00
2023-04-18T06:49:07.524Z,1.30
2023-04-18T06:51:37.107Z,1.33
2023-04-18T06:54:05.481Z,0.70
2023-04-18T06:56:36.299Z,1.40
2023-04-18T06:59:04.794Z,0.90
2023-04-18T07:01:33.815Z,1.00
2023-04-18T07:04:02.345Z,1.53
2023-04-18T07:06:31.049Z,1.00
2023-04-18T07:09:01.544Z,1.43
2023-04-18T07:11:29.862Z,0.80
2023-04-18T07:13:58.091Z,1.47
2023-04-18T07:16:26.347Z,1.03
2023-04-18T07:18:54.620Z,1.53
2023-04-18T07:21:23.899Z,0.73
2023-04-18T07:23:52.192Z,1.70
2023-04-18T07:26:21.817Z,1.43
2023-04-18T07:28:50.499Z,0.73
2023-04-18T07:31:19.467Z,1.10
2023-04-18T07:33:47.809Z,1.43
2023-04-18T07:36:16.044Z,0.97
2023-04-18T07:38:44.395Z,1.43
2023-04-18T07:41:12.751Z,1.00
2023-04-18T07:43:42.420Z,3.10
2023-04-18T07:46:10.666Z,1.70
2023-04-18T07:48:39.062Z,1.20
2023-04-18T07:51:07.380Z,1.60
2023-04-18T07:53:35.871Z,2.67
2023-04-18T07:56:04.116Z,1.23
2023-04-18T07:58:32.356Z,1.00
2023-04-18T08:01:02.125Z,2.30
2023-04-18T08:03:30.769Z,1.57
2023-04-18T08:05:59.325Z,1.53
2023-04-18T08:08:27.568Z,4.77
2023-04-18T08:10:55.848Z,1.27
2023-04-18T08:13:24.128Z,1.43
2023-04-18T08:15:52.417Z,2.90
2023-04-18T08:18:22.939Z,3.23
2023-04-18T08:20:51.259Z,1.90
2023-04-18T08:23:19.496Z,1.23
2023-04-18T08:25:47.712Z,1.17
2023-04-18T08:28:15.957Z,1.43
2023-04-18T08:30:48.666Z,1.83
2023-04-18T08:33:17.044Z,1.80
2023-04-18T08:35:46.744Z,1.50
2023-04-18T08:38:15.346Z,1.47
2023-04-18T08:40:44.696Z,0.67
2023-04-18T08:43:14.208Z,1.37
2023-04-18T08:45:42.565Z,1.67
2023-04-18T08:48:13.758Z,2.17
2023-04-18T08:50:42.077Z,2.83
2023-04-18T08:53:11.732Z,1.20
2023-04-18T08:55:40.486Z,2.10
2023-04-18T08:58:08.786Z,0.70
2023-04-18T09:00:37.074Z,1.23
2023-04-18T09:03:06.762Z,1.23
2023-04-18T09:05:35.602Z,0.70
2023-04-18T09:08:03.873Z,1.07
2023-04-18T09:10:33.871Z,0.97
2023-04-18T09:13:03.036Z,1.07
2023-04-18T09:15:31.685Z,0.90
2023-04-18T09:18:00.309Z,0.80
2023-04-18T09:20:34.523Z,2.00
2023-04-18T09:23:03.727Z,0.67
2023-04-18T09:28:04.631Z,0.70
2023-04-18T09:30:42.293Z,0.90
2023-04-18T09:33:10.868Z,3.33
2023-04-18T09:35:39.165Z,1.03
2023-04-18T09:38:07.614Z,1.73
2023-04-18T09:40:35.853Z,0.60
2023-04-18T09:43:10.727Z,0.87
2023-04-18T09:45:39.020Z,0.93
2023-04-18T09:48:07.640Z,0.60
2023-04-18T09:50:36.092Z,0.80
2023-04-18T09:53:04.348Z,1.27
2023-04-18T09:55:33.385Z,0.90
2023-04-18T09:58:01.656Z,0.70
2023-04-18T10:00:31.567Z,1.13
2023-04-18T10:03:00.259Z,0.93
2023-04-18T10:05:29.277Z,2.17
2023-04-18T10:07:57.550Z,1.20
2023-04-18T10:10:25.828Z,0.70
2023-04-18T10:12:54.990Z,0.93
2023-04-18T10:15:23.569Z,1.30
2023-04-18T10:18:04.185Z,2.07
2023-04-18T10:20:34.706Z,0.80
2023-04-18T10:23:23.190Z,1.27
2023-04-18T10:25:51.999Z,0.57
2023-04-18T10:28:21.447Z,1.13
2023-04-18T10:30:56.912Z,1.03
2023-04-18T10:33:32.016Z,0.60
2023-04-18T10:36:01.373Z,1.50
2023-04-18T10:38:29.623Z,1.27
2023-04-18T10:41:16.417Z,0.73
2023-04-18T10:44:13.077Z,1.03
2023-04-18T10:46:42.029Z,1.03
2023-04-18T10:49:18.109Z,0.80
2023-04-18T10:51:46.433Z,1.43
2023-04-18T10:54:15.702Z,0.70
2023-04-18T10:56:52.855Z,1.00
2023-04-18T10:59:21.088Z,0.67
2023-04-18T11:01:49.328Z,1.13
2023-04-18T11:04:19.497Z,1.03
2023-04-18T11:06:49.304Z,0.63
2023-04-18T11:09:17.519Z,0.80
2023-04-18T11:11:45.774Z,1.43
2023-04-18T11:14:14.363Z,1.30
2023-04-18T11:16:42.965Z,0.80
2023-04-18T11:19:21.990Z,1.47
2023-04-18T11:21:51.236Z,0.70
2023-04-18T11:24:24.236Z,0.80
2023-04-18T11:26:55.822Z,0.70
2023-04-18T11:29:24.333Z,0.80
2023-04-18T11:31:55.825Z,0.93
2023-04-18T11:34:27.551Z,0.50
2023-04-18T11:36:55.809Z,1.37
2023-04-18T11:39:24.187Z,0.70
2023-04-18T11:41:52.520Z,0.47
2023-04-18T11:44:24.550Z,0.50
2023-04-18T11:46:52.816Z,1.23
2023-04-18T11:49:28.920Z,0.97
2023-04-18T11:51:57.207Z,1.10
2023-04-18T11:54:38.098Z,0.70
2023-04-18T11:57:06.479Z,0.40
2023-04-18T11:59:34.767Z,1.63
2023-04-18T12:02:15.387Z,0.83
2023-04-18T12:04:59.307Z,0.50
2023-04-18T12:07:37.745Z,1.17
2023-04-18T12:10:06.399Z,0.60
2023-04-18T12:12:34.645Z,1.13
2023-04-18T12:15:03.123Z,0.57
2023-04-18T12:17:31.413Z,1.27
2023-04-18T12:20:04.016Z,1.03
2023-04-18T12:22:39.936Z,0.60
2023-04-18T12:25:11.818Z,0.50
2023-04-18T12:27:58.063Z,2.87
2023-04-18T12:30:26.958Z,0.70
2023-04-18T12:32:55.922Z,0.57
2023-04-18T12:35:25.671Z,0.70
2023-04-18T12:37:55.310Z,1.00
2023-04-18T12:40:23.814Z,0.57
2023-04-18T12:42:52.363Z,1.37
2023-04-18T12:45:21.634Z,1.23
2023-04-18T12:47:50.347Z,0.83
2023-04-18T12:50:18.940Z,0.83
2023-04-18T12:52:48.564Z,0.40
2023-04-18T12:55:16.862Z,0.97
2023-04-18T12:57:45.123Z,0.70
2023-04-18T13:00:14.195Z,0.90
2023-04-18T13:02:43.631Z,0.30
2023-04-18T13:05:12.451Z,0.40
2023-04-18T13:07:40.866Z,0.50
2023-04-18T13:10:11.617Z,0.60
2023-04-18T13:12:40.113Z,0.60
2023-04-18T13:15:08.891Z,0.40
2023-04-18T13:17:37.450Z,1.00
2023-04-18T13:20:06.417Z,1.47
2023-04-18T13:22:34.791Z,0.60
2023-04-18T13:25:03.123Z,0.70
2023-04-18T13:27:32.734Z,0.30
2023-04-18T13:30:01.136Z,1.07
2023-04-18T13:32:29.467Z,0.30
2023-04-18T13:34:57.741Z,0.30
2023-04-18T13:37:26.018Z,0.63
2023-04-18T13:39:54.250Z,0.80
2023-04-18T13:42:22.545Z,0.57
2023-04-18T13:44:52.191Z,1.30
2023-04-18T13:47:20.534Z,0.70
2023-04-18T13:49:48.845Z,1.60
2023-04-18T13:52:17.435Z,1.03
2023-04-18T13:54:45.681Z,1.20
2023-04-18T13:57:14.714Z,0.70
2023-04-18T13:59:42.991Z,0.47
2023-04-18T14:02:12.726Z,0.43
2023-04-18T14:04:41.527Z,0.77
2023-04-18T14:07:09.870Z,0.50
2023-04-18T14:09:38.125Z,1.70
2023-04-18T14:12:07.040Z,0.50
2023-04-18T14:14:35.370Z,0.50
2023-04-18T14:17:03.751Z,1.23
2023-04-18T14:19:34.759Z,0.73
2023-04-18T14:22:03.010Z,0.87
2023-04-18T14:24:31.259Z,0.67
2023-04-18T14:26:59.561Z,0.60
2023-04-18T14:29:27.819Z,2.00
2023-04-18T14:31:56.040Z,1.10
2023-04-18T14:34:24.318Z,1.67
2023-04-18T14:36:53.906Z,0.80
2023-04-18T14:39:22.332Z,1.07
2023-04-18T14:41:50.612Z,0.73
2023-04-18T14:44:19.062Z,0.73
2023-04-18T14:46:47.309Z,0.70
2023-04-18T14:49:15.809Z,0.83
2023-04-18T14:51:44.413Z,2.60
2023-04-18T14:54:14.035Z,0.73
2023-04-18T14:56:42.262Z,1.90
2023-04-18T14:59:15.541Z,0.63
2023-04-18T15:01:44.905Z,1.00
2023-04-18T15:04:13.493Z,0.93
2023-04-18T15:06:42.145Z,1.33
2023-04-18T15:09:10.419Z,1.00
2023-04-18T15:11:40.449Z,0.70
2023-04-18T15:14:08.706Z,0.90
2023-04-18T15:16:39.409Z,0.80
2023-04-18T15:19:07.718Z,1.10
2023-04-18T15:21:36.256Z,2.23
2023-04-18T15:24:04.565Z,0.70
2023-04-18T15:26:33.420Z,0.60
2023-04-18T15:29:04.576Z,0.80
2023-04-18T15:31:32.891Z,1.10
2023-04-18T15:34:01.180Z,0.60
2023-04-18T15:36:29.440Z,0.90
2023-04-18T15:38:57.685Z,1.17
2023-04-18T15:41:25.926Z,0.97
2023-04-18T15:43:54.274Z,1.00
2023-04-18T15:46:23.892Z,1.80
2023-04-18T15:48:52.194Z,2.60
2023-04-18T15:51:20.492Z,1.17
2023-04-18T15:53:48.751Z,0.83
2023-04-18T15:56:17.033Z,0.63
2023-04-18T15:58:45.681Z,1.20
2023-04-18T16:01:15.921Z,0.83
2023-04-18T16:03:45.806Z,0.70
2023-04-18T16:06:15.516Z,1.13
2023-04-18T16:08:43.886Z,0.77
2023-04-18T16:11:12.187Z,1.23
2023-04-18T16:13:40.542Z,1.87
2023-04-18T16:16:09.125Z,1.00
2023-04-18T16:18:37.481Z,1.27
2023-04-18T16:21:07.287Z,1.60
2023-04-18T16:23:35.616Z,1.20
2023-04-18T16:26:03.866Z,1.47
2023-04-18T16:28:37.452Z,1.27
2023-04-18T16:31:06.169Z,0.63
2023-04-18T16:33:34.510Z,1.17
2023-04-18T16:36:03.514Z,1.23
2023-04-18T16:38:33.152Z,2.07
2023-04-18T16:41:01.781Z,1.50
2023-04-18T16:43:30.899Z,2.30
2023-04-18T16:46:00.389Z,2.00
2023-04-18T16:48:29.130Z,2.27
2023-04-18T16:50:57.395Z,2.07
2023-04-18T16:53:25.697Z,2.00
2023-04-18T16:55:55.478Z,5.33
2023-04-18T16:58:23.874Z,1.57
2023-04-18T17:00:52.611Z,1.90
2023-04-18T17:03:21.072Z,3.57
2023-04-18T17:05:49.367Z,1.83
2023-04-18T17:08:18.072Z,2.00
2023-04-18T17:10:46.310Z,1.70
2023-04-18T17:13:15.889Z,2.47
2023-04-18T17:15:44.222Z,40.63
2023-04-18T17:18:12.601Z,199.37
2023-04-18T17:20:40.898Z,136.03
2023-04-18T17:23:09.335Z,122.90
2023-04-18T17:25:37.693Z,54.43
2023-04-18T17:28:06.118Z,108.77
2023-04-18T17:30:36.121Z,110.07
2023-04-18T17:33:04.397Z,110.73
2023-04-18T17:35:32.725Z,114.07
2023-04-18T17:38:01.112Z,97.00
2023-04-18T17:40:29.697Z,104.10
2023-04-18T17:42:57.943Z,92.80
2023-04-18T17:45:26.526Z,130.53
2023-04-18T17:47:57.550Z,79.53
2023-04-18T17:50:25.965Z,81.67
2023-04-18T17:52:54.217Z,86.80
2023-04-18T17:55:22.456Z,57.83
2023-04-18T17:57:50.788Z,71.50
2023-04-18T18:00:19.456Z,56.47
2023-04-18T18:02:47.858Z,66.70
2023-04-18T18:05:17.603Z,54.27
2023-04-18T18:07:48.724Z,55.73
2023-04-18T18:10:19.930Z,54.27
2023-04-18T18:12:48.504Z,58.17
2023-04-18T18:15:16.984Z,58.23
2023-04-18T18:17:45.272Z,62.13
2023-04-18T18:20:13.879Z,70.13
2023-04-18T18:22:43.461Z,48.13
2023-04-18T18:25:12.138Z,52.03
2023-04-18T18:27:41.025Z,72.70
2023-04-18T18:30:09.664Z,57.73
2023-04-18T18:32:37.966Z,37.23
2023-04-18T18:35:07.351Z,41.13
2023-04-18T18:37:35.608Z,36.93
2023-04-18T18:40:07.392Z,29.73
2023-04-18T18:42:35.782Z,32.93
2023-04-18T18:45:04.493Z,43.43
2023-04-18T18:47:34.332Z,31.60
2023-04-18T18:50:02.822Z,39.87
2023-04-18T18:52:31.424Z,25.20
2023-04-18T18:55:01.196Z,36.47
2023-04-18T18:57:30.843Z,43.73
2023-04-18T18:59:59.062Z,33.93
2023-04-18T19:02:27.806Z,25.03
2023-04-18T19:04:56.309Z,28.13
2023-04-18T19:07:24.756Z,27.73
2023-04-18T19:09:55.303Z,32.13
2023-04-18T19:12:23.549Z,22.57
2023-04-18T19:14:53.147Z,28.20
2023-04-18T19:17:24.777Z,30.47
2023-04-18T19:19:53.229Z,27.63
2023-04-18T19:22:21.482Z,24.93
2023-04-18T19:24:49.839Z,25.47
2023-04-18T19:27:18.084Z,24.17
2023-04-18T19:29:46.334Z,20.93
2023-04-18T19:32:16.172Z,24.40
2023-04-18T19:34:44.429Z,21.10
2023-04-18T19:37:12.662Z,17.40
2023-04-18T19:39:41.205Z,16.60
2023-04-18T19:42:10.328Z,19.97
2023-04-18T19:44:38.583Z,16.40
2023-04-18T19:47:07.185Z,17.07
2023-04-18T19:49:36.803Z,17.10
2023-04-18T19:52:05.022Z,14.40
2023-04-18T19:54:34.396Z,22.73
2023-04-18T19:57:04.506Z,14.47
2023-04-18T19:59:32.748Z,15.13
2023-04-18T20:02:04.356Z,15.77
2023-04-18T20:04:36.493Z,10.03
2023-04-18T20:07:06.422Z,12.67
2023-04-18T20:09:34.653Z,8.83
2023-04-18T20:12:02.909Z,17.50
2023-04-18T20:14:31.340Z,18.27
2023-04-18T20:16:59.559Z,12.10
2023-04-18T20:19:29.538Z,16.97
2023-04-18T20:21:57.973Z,10.83
2023-04-18T20:24:28.904Z,10.67
2023-04-18T20:26:57.204Z,8.60
2023-04-18T20:29:25.517Z,7.50
2023-04-18T20:31:53.766Z,11.33
2023-04-18T20:34:22.036Z,5.30
2023-04-18T20:36:52.508Z,6.03
2023-04-18T20:39:20.791Z,6.63
2023-04-18T20:41:53.764Z,11.53
2023-04-18T20:44:22.253Z,12.93
2023-04-18T20:46:50.685Z,10.47
2023-04-18T20:49:18.983Z,5.90
2023-04-18T20:51:47.276Z,5.07
2023-04-18T20:54:16.007Z,9.47
2023-04-18T20:56:44.587Z,7.07
2023-04-18T20:59:14.255Z,8.27
2023-04-18T21:01:42.648Z,5.77
2023-04-18T21:04:11.106Z,7.80
2023-04-18T21:06:39.462Z,8.03
2023-04-18T21:09:07.737Z,9.17
2023-04-18T21:11:36.118Z,9.07
2023-04-18T21:14:06.651Z,5.60
2023-04-18T21:16:39.253Z,5.73
2023-04-18T21:19:08.445Z,5.57
2023-04-18T21:21:36.707Z,6.00
2023-04-18T21:24:05.664Z,7.73
2023-04-18T21:26:33.939Z,5.07
2023-04-18T21:29:04.603Z,8.00
2023-04-18T21:31:33.419Z,8.23
2023-04-18T21:34:03.284Z,8.43
2023-04-18T21:36:31.642Z,6.87
2023-04-18T21:39:00.867Z,7.80
2023-04-18T21:41:29.232Z,6.10
2023-04-18T21:43:57.500Z,4.57
2023-04-18T21:46:25.834Z,6.13
2023-04-18T21:48:54.104Z,7.10
2023-04-18T21:51:23.721Z,3.87
2023-04-18T21:53:51.993Z,4.33
2023-04-18T21:56:20.476Z,3.80
2023-04-18T21:58:48.710Z,6.20
2023-04-18T22:01:17.017Z,5.93
2023-04-18T22:03:45.478Z,6.47
2023-04-18T22:06:13.849Z,4.50
2023-04-18T22:08:43.625Z,3.63
2023-04-18T22:11:13.589Z,4.37
2023-04-18T22:13:45.033Z,7.73
2023-04-18T22:16:13.564Z,5.30
2023-04-18T22:18:41.816Z,4.30
2023-04-18T22:21:10.488Z,7.70
2023-04-18T22:23:38.714Z,4.90
2023-04-18T22:26:08.355Z,3.83
2023-04-18T22:28:36.596Z,4.60
2023-04-18T22:31:04.903Z,2.57
2023-04-18T22:33:33.220Z,3.77
2023-04-18T22:36:01.494Z,3.40
2023-04-18T22:38:29.788Z,3.00
2023-04-18T22:40:58.041Z,3.17
2023-04-18T22:43:28.296Z,4.93
2023-04-18T22:45:56.594Z,3.97
2023-04-18T22:48:24.834Z,3.33
2023-04-18T22:50:53.416Z,3.33
2023-04-18T22:53:21.662Z,1.70
2023-04-18T22:55:49.862Z,4.83
2023-04-18T22:58:18.110Z,2.33
2023-04-18T23:00:47.713Z,4.37
2023-04-18T23:03:16.152Z,2.77
2023-04-18T23:05:44.791Z,4.57
2023-04-18T23:08:13.300Z,5.90
2023-04-18T23:10:41.815Z,1.90
2023-04-18T23:13:10.569Z,3.17
2023-04-18T23:15:38.883Z,1.53
2023-04-18T23:18:08.571Z,6.83
2023-04-18T23:20:37.896Z,1.73
2023-04-18T23:23:06.122Z,2.40
2023-04-18T23:25:34.376Z,3.60
2023-04-18T23:28:02.711Z,3.13
2023-04-18T23:30:31.109Z,5.90
2023-04-18T23:32:59.352Z,2.53
2023-04-18T23:35:29.027Z,3.17
2023-04-18T23:37:57.482Z,3.70
2023-04-18T23:40:25.927Z,1.70
2023-04-18T23:42:54.410Z,4.50
2023-04-18T23:45:24.253Z,2.33
2023-04-18T23:47:52.604Z,2.87
2023-04-18T23:50:21.090Z,2.53
2023-04-18T23:52:50.790Z,4.50
2023-04-18T23:55:19.121Z,2.73
2023-04-18T23:57:47.373Z,1.60
